sensor_id;sensor_type;location;lat;lon;timestamp;temperature;humidity
40289;DHT22;28991;52.028;5.526;2023-03-03T00:00:43;15.30;44.40
40289;DHT22;28991;52.028;5.526;2023-03-03T00:03:10;15.40;44.40
40289;DHT22;28991;52.028;5.526;2023-03-03T00:05:36;15.30;44.40
40289;DHT22;28991;52.028;5.526;2023-03-03T00:08:02;15.70;44.70
40289;DHT22;28991;52.028;5.526;2023-03-03T00:10:28;15.20;44.40
40289;DHT22;28991;52.028;5.526;2023-03-03T00:12:54;16.40;45.00
40289;DHT22;28991;52.028;5.526;2023-03-03T00:15:24;14.70;44.10
40289;DHT22;28991;52.028;5.526;2023-03-03T00:17:50;15.20;44.40
40289;DHT22;28991;52.028;5.526;2023-03-03T00:20:38;14.60;45.60
40289;DHT22;28991;52.028;5.526;2023-03-03T00:23:30;15.10;44.40
40289;DHT22;28991;52.028;5.526;2023-03-03T00:25:57;15.20;44.50
40289;DHT22;28991;52.028;5.526;2023-03-03T00:28:28;14.60;45.60
40289;DHT22;28991;52.028;5.526;2023-03-03T00:30:57;15.30;44.60
40289;DHT22;28991;52.028;5.526;2023-03-03T00:33:27;15.20;45.90
40289;DHT22;28991;52.028;5.526;2023-03-03T00:35:56;14.80;45.70
40289;DHT22;28991;52.028;5.526;2023-03-03T00:38:22;15.30;44.50
40289;DHT22;28991;52.028;5.526;2023-03-03T00:40:48;14.70;44.20
40289;DHT22;28991;52.028;5.526;2023-03-03T00:43:25;13.70;43.70
40289;DHT22;28991;52.028;5.526;2023-03-03T00:45:56;15.20;44.50
40289;DHT22;28991;52.028;5.526;2023-03-03T00:48:25;14.50;44.10
40289;DHT22;28991;52.028;5.526;2023-03-03T00:50:53;15.10;44.50
40289;DHT22;28991;52.028;5.526;2023-03-03T00:53:21;15.20;44.50
40289;DHT22;28991;52.028;5.526;2023-03-03T00:55:49;15.10;45.90
40289;DHT22;28991;52.028;5.526;2023-03-03T00:58:14;15.10;44.50
40289;DHT22;28991;52.028;5.526;2023-03-03T01:00:40;15.10;44.50
40289;DHT22;28991;52.028;5.526;2023-03-03T01:03:09;15.10;44.50
40289;DHT22;28991;52.028;5.526;2023-03-03T01:05:36;15.30;45.20
40289;DHT22;28991;52.028;5.526;2023-03-03T01:08:03;14.30;44.10
40289;DHT22;28991;52.028;5.526;2023-03-03T01:10:30;15.30;44.60
40289;DHT22;28991;52.028;5.526;2023-03-03T01:12:56;15.20;44.60
40289;DHT22;28991;52.028;5.526;2023-03-03T01:15:23;15.50;44.70
40289;DHT22;28991;52.028;5.526;2023-03-03T01:17:49;15.50;44.70
40289;DHT22;28991;52.028;5.526;2023-03-03T01:20:15;15.20;44.60
40289;DHT22;28991;52.028;5.526;2023-03-03T01:22:40;16.10;45.10
40289;DHT22;28991;52.028;5.526;2023-03-03T01:25:07;14.70;44.30
40289;DHT22;28991;52.028;5.526;2023-03-03T01:27:34;15.10;44.60
40289;DHT22;28991;52.028;5.526;2023-03-03T01:30:00;15.10;44.60
40289;DHT22;28991;52.028;5.526;2023-03-03T01:32:26;15.20;44.60
40289;DHT22;28991;52.028;5.526;2023-03-03T01:34:53;15.20;44.60
40289;DHT22;28991;52.028;5.526;2023-03-03T01:37:19;16.80;45.50
40289;DHT22;28991;52.028;5.526;2023-03-03T01:39:49;15.30;44.70
40289;DHT22;28991;52.028;5.526;2023-03-03T01:42:15;15.10;44.60
40289;DHT22;28991;52.028;5.526;2023-03-03T01:44:41;15.60;44.90
40289;DHT22;28991;52.028;5.526;2023-03-03T01:47:16;15.20;44.60
40289;DHT22;28991;52.028;5.526;2023-03-03T01:49:56;15.00;44.60
40289;DHT22;28991;52.028;5.526;2023-03-03T01:55:00;15.10;44.60
40289;DHT22;28991;52.028;5.526;2023-03-03T01:57:36;15.10;44.60
40289;DHT22;28991;52.028;5.526;2023-03-03T02:00:05;15.10;44.60
40289;DHT22;28991;52.028;5.526;2023-03-03T02:02:31;14.90;44.50
40289;DHT22;28991;52.028;5.526;2023-03-03T02:04:57;15.10;44.70
40289;DHT22;28991;52.028;5.526;2023-03-03T02:07:24;15.20;44.70
40289;DHT22;28991;52.028;5.526;2023-03-03T02:09:58;15.60;44.90
40289;DHT22;28991;52.028;5.526;2023-03-03T02:12:41;15.80;46.30
40289;DHT22;28991;52.028;5.526;2023-03-03T02:15:22;15.10;44.70
40289;DHT22;28991;52.028;5.526;2023-03-03T02:17:51;15.10;44.70
40289;DHT22;28991;52.028;5.526;2023-03-03T02:23:05;15.00;44.60
40289;DHT22;28991;52.028;5.526;2023-03-03T02:25:40;15.20;44.70
40289;DHT22;28991;52.028;5.526;2023-03-03T02:28:08;14.50;44.40
40289;DHT22;28991;52.028;5.526;2023-03-03T02:30:36;15.40;44.80
40289;DHT22;28991;52.028;5.526;2023-03-03T02:33:03;14.70;44.50
40289;DHT22;28991;52.028;5.526;2023-03-03T02:35:33;14.30;44.30
40289;DHT22;28991;52.028;5.526;2023-03-03T02:38:46;15.10;44.70
40289;DHT22;28991;52.028;5.526;2023-03-03T02:41:12;14.90;44.60
40289;DHT22;28991;52.028;5.526;2023-03-03T02:43:55;14.80;46.00
40289;DHT22;28991;52.028;5.526;2023-03-03T02:46:22;13.90;44.10
40289;DHT22;28991;52.028;5.526;2023-03-03T02:48:48;15.00;44.70
40289;DHT22;28991;52.028;5.526;2023-03-03T02:51:14;14.90;44.10
40289;DHT22;28991;52.028;5.526;2023-03-03T02:53:39;15.00;44.70
40289;DHT22;28991;52.028;5.526;2023-03-03T02:56:06;15.10;44.70
40289;DHT22;28991;52.028;5.526;2023-03-03T02:58:34;15.30;46.20
40289;DHT22;28991;52.028;5.526;2023-03-03T03:01:00;14.90;46.00
40289;DHT22;28991;52.028;5.526;2023-03-03T03:03:25;15.00;44.70
40289;DHT22;28991;52.028;5.526;2023-03-03T03:05:51;15.00;44.70
40289;DHT22;28991;52.028;5.526;2023-03-03T03:08:16;15.20;46.20
40289;DHT22;28991;52.028;5.526;2023-03-03T03:10:42;15.00;44.70
40289;DHT22;28991;52.028;5.526;2023-03-03T03:13:07;14.70;45.90
40289;DHT22;28991;52.028;5.526;2023-03-03T03:15:34;14.60;45.80
40289;DHT22;28991;52.028;5.526;2023-03-03T03:18:00;14.20;44.30
40289;DHT22;28991;52.028;5.526;2023-03-03T03:20:26;14.90;44.60
40289;DHT22;28991;52.028;5.526;2023-03-03T03:22:52;14.80;46.00
40289;DHT22;28991;52.028;5.526;2023-03-03T03:25:17;15.00;44.70
40289;DHT22;28991;52.028;5.526;2023-03-03T03:27:43;14.90;45.90
40289;DHT22;28991;52.028;5.526;2023-03-03T03:30:09;15.00;44.80
40289;DHT22;28991;52.028;5.526;2023-03-03T03:32:34;15.70;45.10
40289;DHT22;28991;52.028;5.526;2023-03-03T03:35:00;15.20;46.20
40289;DHT22;28991;52.028;5.526;2023-03-03T03:37:26;15.60;45.10
40289;DHT22;28991;52.028;5.526;2023-03-03T03:39:51;15.00;44.80
40289;DHT22;28991;52.028;5.526;2023-03-03T03:42:18;15.10;44.80
40289;DHT22;28991;52.028;5.526;2023-03-03T03:44:44;15.00;44.80
40289;DHT22;28991;52.028;5.526;2023-03-03T03:47:09;15.00;46.10
40289;DHT22;28991;52.028;5.526;2023-03-03T03:49:35;15.60;45.10
40289;DHT22;28991;52.028;5.526;2023-03-03T03:52:00;14.90;44.70
40289;DHT22;28991;52.028;5.526;2023-03-03T03:54:26;15.00;44.80
40289;DHT22;28991;52.028;5.526;2023-03-03T03:56:52;14.70;44.70
40289;DHT22;28991;52.028;5.526;2023-03-03T03:59:19;15.00;44.80
40289;DHT22;28991;52.028;5.526;2023-03-03T04:01:44;14.90;44.70
40289;DHT22;28991;52.028;5.526;2023-03-03T04:04:10;15.20;44.90
40289;DHT22;28991;52.028;5.526;2023-03-03T04:06:36;15.00;44.80
40289;DHT22;28991;52.028;5.526;2023-03-03T04:09:02;15.00;44.80
40289;DHT22;28991;52.028;5.526;2023-03-03T04:11:28;15.00;44.80
40289;DHT22;28991;52.028;5.526;2023-03-03T04:13:53;15.00;44.80
40289;DHT22;28991;52.028;5.526;2023-03-03T04:16:19;15.20;44.90
40289;DHT22;28991;52.028;5.526;2023-03-03T04:18:44;16.20;45.40
40289;DHT22;28991;52.028;5.526;2023-03-03T04:21:12;14.90;44.80
40289;DHT22;28991;52.028;5.526;2023-03-03T04:23:38;14.30;44.40
40289;DHT22;28991;52.028;5.526;2023-03-03T04:26:04;14.40;44.50
40289;DHT22;28991;52.028;5.526;2023-03-03T04:28:29;15.10;44.90
40289;DHT22;28991;52.028;5.526;2023-03-03T04:30:55;14.70;44.70
40289;DHT22;28991;52.028;5.526;2023-03-03T04:33:21;15.00;44.90
40289;DHT22;28991;52.028;5.526;2023-03-03T04:35:46;15.10;44.90
40289;DHT22;28991;52.028;5.526;2023-03-03T04:38:12;15.10;46.10
40289;DHT22;28991;52.028;5.526;2023-03-03T04:40:39;14.90;44.80
40289;DHT22;28991;52.028;5.526;2023-03-03T04:43:05;14.90;44.80
40289;DHT22;28991;52.028;5.526;2023-03-03T04:45:31;15.30;45.00
40289;DHT22;28991;52.028;5.526;2023-03-03T04:47:57;15.10;46.30
40289;DHT22;28991;52.028;5.526;2023-03-03T04:50:22;14.90;44.80
40289;DHT22;28991;52.028;5.526;2023-03-03T04:52:48;15.50;45.10
40289;DHT22;28991;52.028;5.526;2023-03-03T04:55:13;13.50;44.10
40289;DHT22;28991;52.028;5.526;2023-03-03T04:57:41;17.40;46.20
40289;DHT22;28991;52.028;5.526;2023-03-03T05:00:08;15.00;44.90
40289;DHT22;28991;52.028;5.526;2023-03-03T05:02:33;15.00;44.90
40289;DHT22;28991;52.028;5.526;2023-03-03T05:04:59;14.60;44.70
40289;DHT22;28991;52.028;5.526;2023-03-03T05:07:25;14.70;44.70
40289;DHT22;28991;52.028;5.526;2023-03-03T05:09:50;15.10;45.00
40289;DHT22;28991;52.028;5.526;2023-03-03T05:12:16;15.00;45.50
40289;DHT22;28991;52.028;5.526;2023-03-03T05:14:41;15.60;45.30
40289;DHT22;28991;52.028;5.526;2023-03-03T05:17:07;14.90;44.90
40289;DHT22;28991;52.028;5.526;2023-03-03T05:19:33;14.80;44.90
40289;DHT22;28991;52.028;5.526;2023-03-03T05:21:59;15.10;45.00
40289;DHT22;28991;52.028;5.526;2023-03-03T05:24:25;15.40;46.40
40289;DHT22;28991;52.028;5.526;2023-03-03T05:26:50;15.60;45.30
40289;DHT22;28991;52.028;5.526;2023-03-03T05:29:16;15.90;45.40
40289;DHT22;28991;52.028;5.526;2023-03-03T05:31:41;14.90;44.90
40289;DHT22;28991;52.028;5.526;2023-03-03T05:34:07;14.90;44.90
40289;DHT22;28991;52.028;5.526;2023-03-03T05:36:33;15.20;46.40
40289;DHT22;28991;52.028;5.526;2023-03-03T05:38:58;14.20;44.50
40289;DHT22;28991;52.028;5.526;2023-03-03T05:41:24;15.00;45.00
40289;DHT22;28991;52.028;5.526;2023-03-03T05:43:49;14.90;45.00
40289;DHT22;28991;52.028;5.526;2023-03-03T05:46:15;15.90;45.50
40289;DHT22;28991;52.028;5.526;2023-03-03T05:48:41;15.30;45.10
40289;DHT22;28991;52.028;5.526;2023-03-03T05:51:06;15.00;45.00
40289;DHT22;28991;52.028;5.526;2023-03-03T05:53:32;14.80;46.10
40289;DHT22;28991;52.028;5.526;2023-03-03T05:55:57;17.20;46.20
40289;DHT22;28991;52.028;5.526;2023-03-03T05:58:23;16.70;46.50
40289;DHT22;28991;52.028;5.526;2023-03-03T06:00:49;14.90;44.90
40289;DHT22;28991;52.028;5.526;2023-03-03T06:03:14;15.00;45.00
40289;DHT22;28991;52.028;5.526;2023-03-03T06:05:41;15.70;45.40
40289;DHT22;28991;52.028;5.526;2023-03-03T06:08:06;14.60;44.80
40289;DHT22;28991;52.028;5.526;2023-03-03T06:10:32;15.30;46.50
40289;DHT22;28991;52.028;5.526;2023-03-03T06:12:57;13.80;44.40
40289;DHT22;28991;52.028;5.526;2023-03-03T06:15:23;16.60;45.90
40289;DHT22;28991;52.028;5.526;2023-03-03T06:17:49;15.40;45.20
40289;DHT22;28991;52.028;5.526;2023-03-03T06:20:14;14.80;45.00
40289;DHT22;28991;52.028;5.526;2023-03-03T06:22:40;14.90;45.00
40289;DHT22;28991;52.028;5.526;2023-03-03T06:25:06;14.30;44.70
40289;DHT22;28991;52.028;5.526;2023-03-03T06:27:32;14.60;46.20
40289;DHT22;28991;52.028;5.526;2023-03-03T06:29:58;15.40;45.30
40289;DHT22;28991;52.028;5.526;2023-03-03T06:32:23;14.80;44.90
40289;DHT22;28991;52.028;5.526;2023-03-03T06:34:49;14.80;46.40
40289;DHT22;28991;52.028;5.526;2023-03-03T06:37:14;15.30;45.20
40289;DHT22;28991;52.028;5.526;2023-03-03T06:39:40;15.10;45.20
40289;DHT22;28991;52.028;5.526;2023-03-03T06:42:06;14.90;45.00
40289;DHT22;28991;52.028;5.526;2023-03-03T06:44:34;14.40;44.80
40289;DHT22;28991;52.028;5.526;2023-03-03T06:46:59;14.20;44.60
40289;DHT22;28991;52.028;5.526;2023-03-03T06:49:25;14.70;44.90
40289;DHT22;28991;52.028;5.526;2023-03-03T06:51:51;14.80;45.00
40289;DHT22;28991;52.028;5.526;2023-03-03T06:54:27;14.40;44.70
40289;DHT22;28991;52.028;5.526;2023-03-03T06:56:58;14.80;44.50
40289;DHT22;28991;52.028;5.526;2023-03-03T06:59:26;14.90;46.30
40289;DHT22;28991;52.028;5.526;2023-03-03T07:01:53;14.50;45.40
40289;DHT22;28991;52.028;5.526;2023-03-03T07:04:21;15.30;45.20
40289;DHT22;28991;52.028;5.526;2023-03-03T07:06:49;14.60;44.90
40289;DHT22;28991;52.028;5.526;2023-03-03T07:09:27;15.20;45.20
40289;DHT22;28991;52.028;5.526;2023-03-03T07:12:23;14.70;46.10
40289;DHT22;28991;52.028;5.526;2023-03-03T07:14:54;14.90;44.50
40289;DHT22;28991;52.028;5.526;2023-03-03T07:17:23;14.90;45.00
40289;DHT22;28991;52.028;5.526;2023-03-03T07:19:48;14.80;44.90
40289;DHT22;28991;52.028;5.526;2023-03-03T07:22:17;14.70;46.20
40289;DHT22;28991;52.028;5.526;2023-03-03T07:24:49;15.40;45.30
40289;DHT22;28991;52.028;5.526;2023-03-03T07:29:46;14.80;45.00
40289;DHT22;28991;52.028;5.526;2023-03-03T07:32:35;14.30;44.20
40289;DHT22;28991;52.028;5.526;2023-03-03T07:35:17;14.70;46.30
40289;DHT22;28991;52.028;5.526;2023-03-03T07:37:45;14.90;45.00
40289;DHT22;28991;52.028;5.526;2023-03-03T07:40:28;14.90;45.00
40289;DHT22;28991;52.028;5.526;2023-03-03T07:42:55;15.60;45.40
40289;DHT22;28991;52.028;5.526;2023-03-03T07:45:34;14.70;44.90
40289;DHT22;28991;52.028;5.526;2023-03-03T07:50:39;15.40;45.20
40289;DHT22;28991;52.028;5.526;2023-03-03T07:53:13;15.50;45.30
40289;DHT22;28991;52.028;5.526;2023-03-03T07:55:42;15.10;45.00
40289;DHT22;28991;52.028;5.526;2023-03-03T08:03:24;14.90;45.00
40289;DHT22;28991;52.028;5.526;2023-03-03T08:05:50;15.00;44.50
40289;DHT22;28991;52.028;5.526;2023-03-03T08:08:32;14.70;44.90
40289;DHT22;28991;52.028;5.526;2023-03-03T08:11:01;15.00;45.00
40289;DHT22;28991;52.028;5.526;2023-03-03T08:16:24;15.20;44.70
40289;DHT22;28991;52.028;5.526;2023-03-03T08:18:56;14.90;45.00
40289;DHT22;28991;52.028;5.526;2023-03-03T08:21:24;14.90;46.30
40289;DHT22;28991;52.028;5.526;2023-03-03T08:23:50;14.90;45.00
40289;DHT22;28991;52.028;5.526;2023-03-03T08:26:18;16.10;45.60
40289;DHT22;28991;52.028;5.526;2023-03-03T08:28:45;15.00;45.00
40289;DHT22;28991;52.028;5.526;2023-03-03T08:31:10;15.00;45.00
40289;DHT22;28991;52.028;5.526;2023-03-03T08:33:37;14.90;45.00
40289;DHT22;28991;52.028;5.526;2023-03-03T08:36:03;14.60;44.80
40289;DHT22;28991;52.028;5.526;2023-03-03T08:38:29;15.30;45.20
40289;DHT22;28991;52.028;5.526;2023-03-03T08:40:55;14.90;45.00
40289;DHT22;28991;52.028;5.526;2023-03-03T08:43:20;15.00;45.10
40289;DHT22;28991;52.028;5.526;2023-03-03T08:45:52;15.00;45.10
40289;DHT22;28991;52.028;5.526;2023-03-03T08:48:19;15.50;45.30
40289;DHT22;28991;52.028;5.526;2023-03-03T08:50:45;15.10;45.10
40289;DHT22;28991;52.028;5.526;2023-03-03T08:53:11;15.00;46.40
40289;DHT22;28991;52.028;5.526;2023-03-03T08:55:38;15.30;44.80
40289;DHT22;28991;52.028;5.526;2023-03-03T08:58:04;15.00;45.10
40289;DHT22;28991;52.028;5.526;2023-03-03T09:00:30;14.90;45.00
40289;DHT22;28991;52.028;5.526;2023-03-03T09:02:56;15.00;45.10
40289;DHT22;28991;52.028;5.526;2023-03-03T09:05:23;15.00;45.10
40289;DHT22;28991;52.028;5.526;2023-03-03T09:07:49;15.10;45.10
40289;DHT22;28991;52.028;5.526;2023-03-03T09:10:18;15.20;45.10
40289;DHT22;28991;52.028;5.526;2023-03-03T09:12:46;15.10;45.10
40289;DHT22;28991;52.028;5.526;2023-03-03T09:17:45;15.10;45.10
40289;DHT22;28991;52.028;5.526;2023-03-03T09:20:37;15.20;45.10
40289;DHT22;28991;52.028;5.526;2023-03-03T09:23:30;15.10;45.10
40289;DHT22;28991;52.028;5.526;2023-03-03T09:26:42;15.30;45.20
40289;DHT22;28991;52.028;5.526;2023-03-03T09:28:42;15.10;45.10
40289;DHT22;28991;52.028;5.526;2023-03-03T09:31:28;16.20;45.70
40289;DHT22;28991;52.028;5.526;2023-03-03T09:33:55;15.10;45.10
40289;DHT22;28991;52.028;5.526;2023-03-03T09:38:51;15.40;45.40
40289;DHT22;28991;52.028;5.526;2023-03-03T09:49:30;15.10;45.50
40289;DHT22;28991;52.028;5.526;2023-03-03T09:52:19;14.40;45.10
40289;DHT22;28991;52.028;5.526;2023-03-03T09:58:02;15.00;45.10
40289;DHT22;28991;52.028;5.526;2023-03-03T10:00:58;15.20;45.80
40289;DHT22;28991;52.028;5.526;2023-03-03T10:03:40;15.20;45.80
40289;DHT22;28991;52.028;5.526;2023-03-03T10:06:26;14.80;45.70
40289;DHT22;28991;52.028;5.526;2023-03-03T10:08:59;16.80;46.80
40289;DHT22;28991;52.028;5.526;2023-03-03T10:14:32;15.80;45.90
40289;DHT22;28991;52.028;5.526;2023-03-03T10:19:44;15.60;46.30
40289;DHT22;28991;52.028;5.526;2023-03-03T10:22:19;16.10;46.50
40289;DHT22;28991;52.028;5.526;2023-03-03T10:25:12;15.80;46.20
40289;DHT22;28991;52.028;5.526;2023-03-03T10:27:59;15.60;45.90
40289;DHT22;28991;52.028;5.526;2023-03-03T10:33:54;16.10;46.20
40289;DHT22;28991;52.028;5.526;2023-03-03T10:41:55;15.80;46.20
40289;DHT22;28991;52.028;5.526;2023-03-03T10:47:27;16.00;46.10
40289;DHT22;28991;52.028;5.526;2023-03-03T10:56:11;16.40;45.40
40289;DHT22;28991;52.028;5.526;2023-03-03T11:01:39;16.60;45.30
40289;DHT22;28991;52.028;5.526;2023-03-03T11:06:54;16.50;45.50
40289;DHT22;28991;52.028;5.526;2023-03-03T11:12:47;16.50;46.00
40289;DHT22;28991;52.028;5.526;2023-03-03T11:18:34;16.90;45.50
40289;DHT22;28991;52.028;5.526;2023-03-03T11:21:25;17.40;46.20
40289;DHT22;28991;52.028;5.526;2023-03-03T11:35:18;18.40;42.50
40289;DHT22;28991;52.028;5.526;2023-03-03T11:37:56;18.20;42.80
40289;DHT22;28991;52.028;5.526;2023-03-03T11:40:31;18.10;43.40
40289;DHT22;28991;52.028;5.526;2023-03-03T11:45:38;17.50;44.10
40289;DHT22;28991;52.028;5.526;2023-03-03T11:48:45;18.30;44.90
40289;DHT22;28991;52.028;5.526;2023-03-03T11:56:39;17.50;45.10
40289;DHT22;28991;52.028;5.526;2023-03-03T12:04:36;17.60;46.90
40289;DHT22;28991;52.028;5.526;2023-03-03T12:12:24;17.80;45.50
40289;DHT22;28991;52.028;5.526;2023-03-03T12:18:11;17.50;47.10
40289;DHT22;28991;52.028;5.526;2023-03-03T12:26:17;18.50;46.40
40289;DHT22;28991;52.028;5.526;2023-03-03T12:29:25;17.10;45.70
40289;DHT22;28991;52.028;5.526;2023-03-03T12:34:43;16.90;45.80
40289;DHT22;28991;52.028;5.526;2023-03-03T12:40:08;16.80;46.20
40289;DHT22;28991;52.028;5.526;2023-03-03T12:56:13;16.50;47.00
40289;DHT22;28991;52.028;5.526;2023-03-03T13:02:13;17.30;49.20
40289;DHT22;28991;52.028;5.526;2023-03-03T13:05:21;15.90;47.10
40289;DHT22;28991;52.028;5.526;2023-03-03T13:07:55;16.20;47.30
40289;DHT22;28991;52.028;5.526;2023-03-03T13:12:58;16.20;47.40
40289;DHT22;28991;52.028;5.526;2023-03-03T13:15:40;16.20;47.50
40289;DHT22;28991;52.028;5.526;2023-03-03T13:18:56;16.10;47.50
40289;DHT22;28991;52.028;5.526;2023-03-03T13:21:52;16.10;47.50
40289;DHT22;28991;52.028;5.526;2023-03-03T13:24:27;16.10;47.60
40289;DHT22;28991;52.028;5.526;2023-03-03T13:27:05;16.10;47.70
40289;DHT22;28991;52.028;5.526;2023-03-03T13:29:39;16.10;47.80
40289;DHT22;28991;52.028;5.526;2023-03-03T13:32:17;16.00;47.70
40289;DHT22;28991;52.028;5.526;2023-03-03T13:37:23;16.10;47.90
40289;DHT22;28991;52.028;5.526;2023-03-03T13:39:58;15.90;47.90
40289;DHT22;28991;52.028;5.526;2023-03-03T13:43:04;15.70;47.90
40289;DHT22;28991;52.028;5.526;2023-03-03T13:51:41;16.00;48.20
40289;DHT22;28991;52.028;5.526;2023-03-03T14:07:52;15.80;48.40
40289;DHT22;28991;52.028;5.526;2023-03-03T14:10:28;15.90;48.50
40289;DHT22;28991;52.028;5.526;2023-03-03T14:13:02;15.90;48.60
40289;DHT22;28991;52.028;5.526;2023-03-03T14:18:20;15.80;48.60
40289;DHT22;28991;52.028;5.526;2023-03-03T14:20:54;15.90;48.70
40289;DHT22;28991;52.028;5.526;2023-03-03T14:23:31;17.30;49.50
40289;DHT22;28991;52.028;5.526;2023-03-03T14:26:00;15.80;48.70
40289;DHT22;28991;52.028;5.526;2023-03-03T14:28:38;16.40;48.60
40289;DHT22;28991;52.028;5.526;2023-03-03T14:31:21;15.80;48.80
40289;DHT22;28991;52.028;5.526;2023-03-03T14:33:58;16.90;49.40
40289;DHT22;28991;52.028;5.526;2023-03-03T14:36:29;16.90;49.40
40289;DHT22;28991;52.028;5.526;2023-03-03T14:38:55;15.90;48.90
40289;DHT22;28991;52.028;5.526;2023-03-03T14:41:33;15.80;48.90
40289;DHT22;28991;52.028;5.526;2023-03-03T14:44:01;15.70;48.50
40289;DHT22;28991;52.028;5.526;2023-03-03T14:46:45;16.00;49.10
40289;DHT22;28991;52.028;5.526;2023-03-03T14:49:35;15.70;49.00
40289;DHT22;28991;52.028;5.526;2023-03-03T14:54:42;15.80;49.10
40289;DHT22;28991;52.028;5.526;2023-03-03T14:59:36;16.20;49.30
40289;DHT22;28991;52.028;5.526;2023-03-03T15:04:42;15.70;49.10
40289;DHT22;28991;52.028;5.526;2023-03-03T15:09:57;15.70;49.10
40289;DHT22;28991;52.028;5.526;2023-03-03T15:17:34;15.80;49.20
40289;DHT22;28991;52.028;5.526;2023-03-03T15:25:21;15.90;50.50
40289;DHT22;28991;52.028;5.526;2023-03-03T15:30:34;15.50;49.10
40289;DHT22;28991;52.028;5.526;2023-03-03T15:33:31;15.50;49.10
40289;DHT22;28991;52.028;5.526;2023-03-03T15:39:16;15.40;49.10
40289;DHT22;28991;52.028;5.526;2023-03-03T15:42:02;15.70;49.30
40289;DHT22;28991;52.028;5.526;2023-03-03T15:44:58;15.50;49.10
40289;DHT22;28991;52.028;5.526;2023-03-03T15:52:54;15.50;49.10
40289;DHT22;28991;52.028;5.526;2023-03-03T15:55:45;16.80;49.80
40289;DHT22;28991;52.028;5.526;2023-03-03T16:03:42;15.40;49.20
40289;DHT22;28991;52.028;5.526;2023-03-03T16:09:06;15.00;48.80
40289;DHT22;28991;52.028;5.526;2023-03-03T16:14:26;15.40;49.00
40289;DHT22;28991;52.028;5.526;2023-03-03T16:20:22;15.50;49.10
40289;DHT22;28991;52.028;5.526;2023-03-03T16:25:59;15.20;48.90
40289;DHT22;28991;52.028;5.526;2023-03-03T16:31:21;15.60;49.10
40289;DHT22;28991;52.028;5.526;2023-03-03T16:36:26;15.20;50.00
40289;DHT22;28991;52.028;5.526;2023-03-03T16:39:12;15.30;49.00
40289;DHT22;28991;52.028;5.526;2023-03-03T16:41:54;15.10;48.90
40289;DHT22;28991;52.028;5.526;2023-03-03T16:44:32;15.40;49.10
40289;DHT22;28991;52.028;5.526;2023-03-03T16:47:18;15.30;49.00
40289;DHT22;28991;52.028;5.526;2023-03-03T16:49:49;15.10;48.90
40289;DHT22;28991;52.028;5.526;2023-03-03T16:52:32;15.50;49.10
40289;DHT22;28991;52.028;5.526;2023-03-03T16:55:27;15.30;49.10
40289;DHT22;28991;52.028;5.526;2023-03-03T16:58:21;15.20;49.00
40289;DHT22;28991;52.028;5.526;2023-03-03T17:01:11;16.20;49.50
40289;DHT22;28991;52.028;5.526;2023-03-03T17:06:29;15.10;49.00
40289;DHT22;28991;52.028;5.526;2023-03-03T17:09:18;15.20;49.00
40289;DHT22;28991;52.028;5.526;2023-03-03T17:14:54;15.60;50.30
40289;DHT22;28991;52.028;5.526;2023-03-03T17:17:52;15.80;50.40
40289;DHT22;28991;52.028;5.526;2023-03-03T17:20:29;15.10;49.00
40289;DHT22;28991;52.028;5.526;2023-03-03T17:28:47;15.70;50.30
40289;DHT22;28991;52.028;5.526;2023-03-03T17:39:44;14.80;48.80
40289;DHT22;28991;52.028;5.526;2023-03-03T17:42:28;15.60;49.30
40289;DHT22;28991;52.028;5.526;2023-03-03T17:45:13;15.10;49.10
40289;DHT22;28991;52.028;5.526;2023-03-03T18:06:50;15.00;49.00
40289;DHT22;28991;52.028;5.526;2023-03-03T18:12:13;15.00;49.00
40289;DHT22;28991;52.028;5.526;2023-03-03T18:15:13;15.70;49.40
40289;DHT22;28991;52.028;5.526;2023-03-03T18:18:04;15.40;49.20
40289;DHT22;28991;52.028;5.526;2023-03-03T18:28:23;15.00;49.00
40289;DHT22;28991;52.028;5.526;2023-03-03T18:31:00;15.00;49.00
40289;DHT22;28991;52.028;5.526;2023-03-03T18:33:56;15.00;49.50
40289;DHT22;28991;52.028;5.526;2023-03-03T18:38:54;15.30;49.20
40289;DHT22;28991;52.028;5.526;2023-03-03T18:42:02;15.60;49.30
40289;DHT22;28991;52.028;5.526;2023-03-03T18:44:26;15.00;49.00
40289;DHT22;28991;52.028;5.526;2023-03-03T18:46:53;15.20;49.20
40289;DHT22;28991;52.028;5.526;2023-03-03T18:49:49;15.40;49.20
40289;DHT22;28991;52.028;5.526;2023-03-03T18:52:25;15.50;50.50
40289;DHT22;28991;52.028;5.526;2023-03-03T18:55:02;15.80;49.50
40289;DHT22;28991;52.028;5.526;2023-03-03T18:57:29;15.00;49.10
40289;DHT22;28991;52.028;5.526;2023-03-03T19:00:20;14.60;50.10
40289;DHT22;28991;52.028;5.526;2023-03-03T19:02:54;15.30;48.70
40289;DHT22;28991;52.028;5.526;2023-03-03T19:05:33;14.60;48.90
40289;DHT22;28991;52.028;5.526;2023-03-03T19:08:21;15.30;49.20
40289;DHT22;28991;52.028;5.526;2023-03-03T19:16:04;14.00;48.50
40289;DHT22;28991;52.028;5.526;2023-03-03T19:21:24;14.80;50.10
40289;DHT22;28991;52.028;5.526;2023-03-03T19:24:03;14.90;49.00
40289;DHT22;28991;52.028;5.526;2023-03-03T19:29:17;15.20;49.10
40289;DHT22;28991;52.028;5.526;2023-03-03T19:40:45;15.00;49.00
40289;DHT22;28991;52.028;5.526;2023-03-03T19:45:57;15.00;49.00
40289;DHT22;28991;52.028;5.526;2023-03-03T19:52:02;14.90;49.00
40289;DHT22;28991;52.028;5.526;2023-03-03T19:57:38;15.20;49.20
40289;DHT22;28991;52.028;5.526;2023-03-03T20:00:20;15.00;49.00
40289;DHT22;28991;52.028;5.526;2023-03-03T20:03:22;15.10;49.10
40289;DHT22;28991;52.028;5.526;2023-03-03T20:05:59;15.00;49.00
40289;DHT22;28991;52.028;5.526;2023-03-03T20:11:15;14.90;48.90
40289;DHT22;28991;52.028;5.526;2023-03-03T20:16:38;14.80;48.90
40289;DHT22;28991;52.028;5.526;2023-03-03T20:19:21;14.90;49.00
40289;DHT22;28991;52.028;5.526;2023-03-03T20:25:17;15.40;50.80
40289;DHT22;28991;52.028;5.526;2023-03-03T20:27:49;14.80;50.40
40289;DHT22;28991;52.028;5.526;2023-03-03T20:30:38;15.00;49.00
40289;DHT22;28991;52.028;5.526;2023-03-03T20:39:09;14.90;48.90
40289;DHT22;28991;52.028;5.526;2023-03-03T20:42:08;14.90;49.00
40289;DHT22;28991;52.028;5.526;2023-03-03T20:45:08;14.70;48.80
40289;DHT22;28991;52.028;5.526;2023-03-03T21:01:04;15.10;49.00
40289;DHT22;28991;52.028;5.526;2023-03-03T21:03:40;14.70;48.90
40289;DHT22;28991;52.028;5.526;2023-03-03T21:06:08;17.00;50.10
40289;DHT22;28991;52.028;5.526;2023-03-03T21:08:55;15.10;49.00
40289;DHT22;28991;52.028;5.526;2023-03-03T21:13:57;14.70;48.80
40289;DHT22;28991;52.028;5.526;2023-03-03T21:21:42;14.90;49.00
40289;DHT22;28991;52.028;5.526;2023-03-03T21:24:11;15.40;49.20
40289;DHT22;28991;52.028;5.526;2023-03-03T21:26:52;14.90;48.90
40289;DHT22;28991;52.028;5.526;2023-03-03T21:31:56;16.20;49.60
40289;DHT22;28991;52.028;5.526;2023-03-03T21:34:23;14.50;50.10
40289;DHT22;28991;52.028;5.526;2023-03-03T21:36:50;14.90;48.90